Terminal Aerodrome Forecast
Issued by NWS Duluth, MN

Home | Current Version | Previous Version | Text Only | Print | Product List | Glossary On
Versions: 1 2 3 4 5 6 7 8 9 10 11 12 13 14 15 16 17 18 19 20 21 22 23 24 25 26 27 28 29 30 31 32 33 34
000
FTUS43 KDLH 281900 AAC
TAFDLH
TAF AMD
KDLH 281900Z 2819/2918 23011KT P6SM SCT027 BKN040
     FM282100 24012KT P6SM SCT025 BKN250
     FM290000 23010KT P6SM SCT110 BKN250
     FM291100 24005KT P6SM SCT040
      TEMPO 2911/2914 2SM BR SCT006
     FM291400 24006KT P6SM SKC=

USA.gov is the U.S. government's official web portal to all federal, state and local government web resources and services.